createdAt,value
2023-01-04T00:03:16.650Z,101833.25
2023-01-04T00:08:19.438Z,101841.63
2023-01-04T00:13:23.289Z,101834.91
2023-01-04T00:18:27.045Z,101814.22
2023-01-04T00:23:29.642Z,101825.44
2023-01-04T00:28:33.505Z,101814.06
2023-01-04T00:33:36.338Z,101806.41
2023-01-04T00:38:40.053Z,101791.34
2023-01-04T00:43:43.952Z,101776.50
2023-01-04T00:48:49.015Z,101765.28
2023-01-04T00:53:52.128Z,101752.00
2023-01-04T00:58:56.852Z,101751.84
2023-01-04T01:04:01.853Z,101742.28
2023-01-04T01:09:04.838Z,101728.59
2023-01-04T01:14:14.508Z,101714.94
2023-01-04T01:19:17.070Z,101717.25
2023-01-04T01:24:21.126Z,101699.59
2023-01-04T01:29:25.336Z,101688.19
2023-01-04T01:34:27.886Z,101688.09
2023-01-04T01:39:30.425Z,101695.28
2023-01-04T01:45:03.136Z,101695.78
2023-01-04T01:50:07.265Z,101697.50
2023-01-04T01:55:12.661Z,101687.81
2023-01-04T02:05:50.358Z,101688.66
2023-01-04T02:10:52.896Z,101682.75
2023-01-04T02:16:07.669Z,101677.88
2023-01-04T02:21:19.047Z,101674.97
2023-01-04T02:27:00.893Z,101669.69
2023-01-04T02:32:12.350Z,101665.25
2023-01-04T02:37:21.957Z,101656.38
2023-01-04T02:42:47.434Z,101651.09
2023-01-04T02:48:08.721Z,101619.88
2023-01-04T02:53:15.028Z,101633.09
2023-01-04T02:58:37.237Z,101613.66
2023-01-04T03:04:07.795Z,101604.88
2023-01-04T03:09:17.431Z,101590.28
2023-01-04T03:14:30.802Z,101585.41
2023-01-04T03:19:55.227Z,101573.13
2023-01-04T03:25:18.030Z,101578.81
2023-01-04T03:30:40.866Z,101581.09
2023-01-04T03:35:48.975Z,101557.91
2023-01-04T03:41:17.890Z,101546.44
2023-01-04T03:46:45.855Z,101555.78
2023-01-04T03:51:53.057Z,101526.59
2023-01-04T03:56:57.331Z,101502.34
2023-01-04T04:02:00.402Z,101500.28
2023-01-04T04:07:22.018Z,101496.88
2023-01-04T04:12:24.536Z,101501.94
2023-01-04T04:17:27.077Z,101501.56
2023-01-04T04:22:31.278Z,101485.63
2023-01-04T04:27:33.860Z,101501.34
2023-01-04T04:32:36.497Z,101494.16
2023-01-04T04:37:40.384Z,101486.81
2023-01-04T04:42:42.925Z,101473.09
2023-01-04T04:47:45.461Z,101464.47
2023-01-04T04:52:55.645Z,101476.50
2023-01-04T04:57:58.685Z,101460.81
2023-01-04T05:03:02.049Z,101456.56
2023-01-04T05:08:06.422Z,101458.28
2023-01-04T05:13:10.730Z,101469.03
2023-01-04T05:18:16.251Z,101453.75
2023-01-04T05:23:21.800Z,101431.97
2023-01-04T05:28:24.557Z,101441.22
2023-01-04T05:33:29.886Z,101450.94
2023-01-04T05:38:34.818Z,101437.69
2023-01-04T05:43:37.356Z,101420.03
2023-01-04T05:48:39.922Z,101423.78
2023-01-04T05:53:43.820Z,101391.06
2023-01-04T05:58:46.467Z,101398.75
2023-01-04T06:03:49.515Z,101392.13
2023-01-04T06:08:53.431Z,101397.06
2023-01-04T06:13:55.985Z,101385.88
2023-01-04T06:18:58.641Z,101379.97
2023-01-04T06:24:02.504Z,101371.56
2023-01-04T06:29:05.515Z,101377.72
2023-01-04T06:34:08.162Z,101385.44
2023-01-04T06:39:12.060Z,101362.63
2023-01-04T06:44:14.592Z,101371.75
2023-01-04T06:49:17.242Z,101363.22
2023-01-04T06:54:21.123Z,101346.94
2023-01-04T06:59:24.373Z,101349.69
2023-01-04T07:04:27.171Z,101369.47
2023-01-04T07:09:31.208Z,101359.75
2023-01-04T07:14:34.373Z,101354.81
2023-01-04T07:19:36.987Z,101348.50
2023-01-04T07:24:41.137Z,101355.56
2023-01-04T07:29:44.254Z,101353.94
2023-01-04T07:34:46.814Z,101352.56
2023-01-04T07:39:50.721Z,101340.34
2023-01-04T07:44:53.321Z,101330.72
2023-01-04T07:49:55.930Z,101332.28
2023-01-04T07:54:59.808Z,101326.03
2023-01-04T08:00:02.445Z,101324.88
2023-01-04T08:05:14.688Z,101320.22
2023-01-04T08:10:18.923Z,101320.22
2023-01-04T08:15:21.517Z,101308.25
2023-01-04T08:20:24.152Z,101301.66
2023-01-04T08:25:28.049Z,101287.19
2023-01-04T08:30:30.690Z,101300.81
2023-01-04T08:35:33.280Z,101287.25
2023-01-04T08:40:58.923Z,101299.94
2023-01-04T08:45:59.722Z,101303.25
2023-01-04T08:51:04.842Z,101289.53
2023-01-04T08:56:09.811Z,101303.44
2023-01-04T09:01:12.529Z,101275.16
2023-01-04T09:06:16.934Z,101308.66
2023-01-04T09:11:22.791Z,101283.66
2023-01-04T09:16:26.139Z,101278.63
2023-01-04T09:21:28.736Z,101279.59
2023-01-04T09:26:32.694Z,101286.41
2023-01-04T09:31:35.821Z,101284.81
2023-01-04T09:36:38.579Z,101293.59
2023-01-04T09:41:49.754Z,101290.88
2023-01-04T09:46:56.352Z,101288.09
2023-01-04T09:52:03.816Z,101307.41
2023-01-04T09:57:18.289Z,101302.00
2023-01-04T10:02:26.900Z,101287.69
2023-01-04T10:07:32.158Z,101293.56
2023-01-04T10:12:48.906Z,101283.94
2023-01-04T10:23:44.389Z,101292.19
2023-01-04T10:29:04.154Z,101272.66
2023-01-04T10:34:23.906Z,101267.63
2023-01-04T10:39:32.774Z,101262.13
2023-01-04T10:44:48.238Z,101250.13
2023-01-04T10:49:56.571Z,101249.16
2023-01-04T10:55:04.200Z,101236.19
2023-01-04T11:00:12.307Z,101240.50
2023-01-04T11:05:21.710Z,101224.88
2023-01-04T11:10:29.726Z,101212.41
2023-01-04T11:15:34.323Z,101213.19
2023-01-04T11:20:38.561Z,101211.69
2023-01-04T11:25:50.488Z,101215.53
2023-01-04T11:31:05.034Z,101204.16
2023-01-04T11:36:08.090Z,101194.28
2023-01-04T11:41:17.177Z,101196.75
2023-01-04T11:46:25.741Z,101199.56
2023-01-04T11:51:39.412Z,101205.34
2023-01-04T11:56:59.468Z,101200.47
2023-01-04T12:02:42.673Z,101198.78
2023-01-04T12:07:43.548Z,101180.81
2023-01-04T12:12:46.810Z,101184.56
2023-01-04T12:17:56.262Z,101172.28
2023-01-04T12:22:58.807Z,101185.91
2023-01-04T12:28:01.644Z,101182.75
2023-01-04T12:33:40.300Z,101163.69
2023-01-04T12:39:06.457Z,101174.00
2023-01-04T12:44:43.174Z,101158.72
2023-01-04T12:49:52.914Z,101158.91
2023-01-04T12:54:58.491Z,101167.53
2023-01-04T13:00:02.549Z,101176.16
2023-01-04T13:05:55.460Z,101163.88
2023-01-04T13:10:57.807Z,101165.66
2023-01-04T13:16:17.639Z,101161.44
2023-01-04T13:21:28.769Z,101171.06
2023-01-04T13:26:38.257Z,101156.72
2023-01-04T13:31:47.325Z,101150.34
2023-01-04T13:37:07.149Z,101153.75
2023-01-04T13:42:17.181Z,101149.84
2023-01-04T13:47:19.989Z,101136.06
2023-01-04T13:52:48.678Z,101146.03
2023-01-04T13:57:55.529Z,101144.91
2023-01-04T14:03:13.774Z,101155.53
2023-01-04T14:08:25.899Z,101156.91
2023-01-04T14:13:29.401Z,101146.59
2023-01-04T14:18:32.835Z,101158.38
2023-01-04T14:23:38.618Z,101113.84
2023-01-04T14:28:49.688Z,101145.91
2023-01-04T14:33:53.975Z,101149.75
2023-01-04T14:39:01.548Z,101130.47
2023-01-04T14:44:10.701Z,101140.66
2023-01-04T14:49:13.904Z,101130.50
2023-01-04T14:54:24.683Z,101128.13
2023-01-04T15:00:24.144Z,101125.31
2023-01-04T15:05:26.848Z,101145.13
2023-01-04T15:10:31.209Z,101135.81
2023-01-04T15:15:33.849Z,101130.72
2023-01-04T15:34:01.785Z,101141.25
2023-01-04T15:39:04.562Z,101097.56
2023-01-04T15:44:11.211Z,101123.81
2023-01-04T15:49:17.500Z,101122.75
2023-01-04T15:54:21.926Z,101111.38
2023-01-04T15:59:25.578Z,101106.47
2023-01-04T16:04:29.836Z,101109.25
2023-01-04T16:09:32.664Z,101104.47
2023-01-04T16:14:35.713Z,101098.59
2023-01-04T16:19:39.647Z,101104.56
2023-01-04T16:25:12.687Z,101098.00
2023-01-04T16:30:06.609Z,101100.66
2023-01-04T16:35:11.910Z,101102.66
2023-01-04T16:40:14.621Z,101111.72
2023-01-04T16:45:18.479Z,101098.84
2023-01-04T16:50:23.817Z,101081.81
2023-01-04T16:55:26.351Z,101099.88
2023-01-04T17:00:28.879Z,101091.19
2023-01-04T17:05:32.760Z,101009.00
2023-01-04T17:10:38.448Z,101106.06
2023-01-04T17:15:43.837Z,101096.81
2023-01-04T17:20:55.552Z,101100.56
2023-01-04T17:26:03.651Z,101096.31
2023-01-04T17:31:08.182Z,101076.31
2023-01-04T17:36:15.726Z,101107.25
2023-01-04T17:41:20.329Z,101101.91
2023-01-04T17:46:24.528Z,101136.03
2023-01-04T17:51:29.689Z,101143.91
2023-01-04T17:56:33.480Z,101132.31
2023-01-04T18:01:36.848Z,101135.94
2023-01-04T18:06:40.798Z,101128.38
2023-01-04T18:11:44.379Z,101147.63
2023-01-04T18:16:59.338Z,101149.09
2023-01-04T18:22:05.169Z,101149.84
2023-01-04T18:27:25.994Z,101108.81
2023-01-04T18:32:29.135Z,101145.91
2023-01-04T18:37:33.861Z,101177.03
2023-01-04T18:42:37.079Z,101188.81
2023-01-04T18:47:39.635Z,101168.22
2023-01-04T18:52:43.619Z,101160.88
2023-01-04T18:57:46.172Z,101156.34
2023-01-04T19:02:48.832Z,101173.44
2023-01-04T19:07:52.865Z,101150.63
2023-01-04T19:12:55.643Z,101169.16
2023-01-04T19:17:58.226Z,101165.38
2023-01-04T19:23:02.088Z,101150.91
2023-01-04T19:28:05.718Z,101151.75
2023-01-04T19:33:08.912Z,101155.38
2023-01-04T19:38:13.670Z,101136.66
2023-01-04T19:43:16.261Z,101166.41
2023-01-04T19:48:18.953Z,101176.19
2023-01-04T19:53:23.018Z,101175.03
2023-01-04T19:58:25.647Z,101180.22
2023-01-04T20:03:28.792Z,101176.72
2023-01-04T20:08:33.285Z,101190.09
2023-01-04T20:13:37.293Z,101199.78
2023-01-04T20:18:40.117Z,101194.59
2023-01-04T20:23:44.370Z,101201.91
2023-01-04T20:28:48.447Z,101207.00
2023-01-04T20:33:50.993Z,101208.91
2023-01-04T20:38:57.939Z,101211.47
2023-01-04T20:44:02.477Z,101206.06
2023-01-04T20:49:05.483Z,101226.56
2023-01-04T20:54:09.727Z,101222.31
2023-01-04T20:59:12.267Z,101225.28
2023-01-04T21:04:17.520Z,101223.78
2023-01-04T21:09:21.425Z,101229.31
2023-01-04T21:14:26.011Z,101244.63
2023-01-04T21:19:28.588Z,101253.97
2023-01-04T21:24:34.624Z,101240.47
2023-01-04T21:29:37.170Z,101252.56
2023-01-04T21:34:39.722Z,101248.44
2023-01-04T21:39:43.794Z,101250.88
2023-01-04T21:44:46.366Z,101244.28
2023-01-04T21:49:50.640Z,101248.94
2023-01-04T21:54:54.913Z,101258.41
2023-01-04T21:59:57.461Z,101241.53
2023-01-04T22:05:00.887Z,101256.28
2023-01-04T22:10:07.099Z,101247.94
2023-01-04T22:15:11.663Z,101255.69
2023-01-04T22:20:14.875Z,101250.69
2023-01-04T22:25:18.925Z,101253.09
2023-01-04T22:30:21.661Z,101260.63
2023-01-04T22:35:24.378Z,101262.13
2023-01-04T22:40:28.255Z,101267.22
2023-01-04T22:45:31.207Z,101284.25
2023-01-04T22:50:34.000Z,101278.63
2023-01-04T22:56:17.180Z,101286.81
2023-01-04T23:01:04.241Z,101274.31
2023-01-04T23:06:07.476Z,101284.84
2023-01-04T23:11:13.481Z,101280.72
2023-01-04T23:16:17.999Z,101295.91
2023-01-04T23:21:20.576Z,101288.72
2023-01-04T23:26:25.917Z,101302.84
2023-01-04T23:31:31.752Z,101314.22
2023-01-04T23:36:37.041Z,101309.75
2023-01-04T23:41:47.644Z,101318.25
2023-01-04T23:46:52.994Z,101308.44
2023-01-04T23:51:55.998Z,101324.38
2023-01-04T23:57:00.625Z,101285.81
